sensor_id;sensor_type;location;lat;lon;timestamp;pressure;altitude;pressure_sealevel;temperature;humidity
56668;BME280;42542;48.360;10.958;2024-02-21T00:00:47;97127.75;;;4.32;92.89
56668;BME280;42542;48.360;10.958;2024-02-21T00:03:49;97130.94;;;4.38;93.45
56668;BME280;42542;48.360;10.958;2024-02-21T00:06:51;97129.03;;;4.40;92.94
56668;BME280;42542;48.360;10.958;2024-02-21T00:09:53;97120.91;;;4.43;93.53
56668;BME280;42542;48.360;10.958;2024-02-21T00:12:55;97126.19;;;4.43;93.48
56668;BME280;42542;48.360;10.958;2024-02-21T00:15:57;97112.00;;;4.44;93.16
56668;BME280;42542;48.360;10.958;2024-02-21T00:18:59;97111.78;;;4.47;92.63
56668;BME280;42542;48.360;10.958;2024-02-21T00:22:01;97108.19;;;4.48;93.23
56668;BME280;42542;48.360;10.958;2024-02-21T00:25:03;97105.34;;;4.51;92.95
56668;BME280;42542;48.360;10.958;2024-02-21T00:28:05;97106.19;;;4.51;92.66
56668;BME280;42542;48.360;10.958;2024-02-21T00:31:08;97103.47;;;4.53;93.17
56668;BME280;42542;48.360;10.958;2024-02-21T00:34:10;97092.03;;;4.52;92.82
56668;BME280;42542;48.360;10.958;2024-02-21T00:37:14;97104.09;;;4.56;92.49
56668;BME280;42542;48.360;10.958;2024-02-21T00:40:15;97103.13;;;4.57;92.68
56668;BME280;42542;48.360;10.958;2024-02-21T00:43:21;97091.91;;;4.54;92.73
56668;BME280;42542;48.360;10.958;2024-02-21T00:46:25;97095.94;;;4.59;92.53
56668;BME280;42542;48.360;10.958;2024-02-21T00:49:27;97088.00;;;4.59;92.83
56668;BME280;42542;48.360;10.958;2024-02-21T00:52:29;97095.09;;;4.59;92.79
56668;BME280;42542;48.360;10.958;2024-02-21T00:55:32;97087.16;;;4.59;92.86
56668;BME280;42542;48.360;10.958;2024-02-21T00:58:34;97082.81;;;4.58;92.76
56668;BME280;42542;48.360;10.958;2024-02-21T01:01:36;97077.41;;;4.59;92.17
56668;BME280;42542;48.360;10.958;2024-02-21T01:04:38;97077.31;;;4.61;92.29
56668;BME280;42542;48.360;10.958;2024-02-21T01:07:39;97076.56;;;4.59;92.85
56668;BME280;42542;48.360;10.958;2024-02-21T01:10:41;97073.81;;;4.60;92.31
56668;BME280;42542;48.360;10.958;2024-02-21T01:13:44;97078.25;;;4.60;92.69
56668;BME280;42542;48.360;10.958;2024-02-21T01:16:46;97069.38;;;4.61;92.68
56668;BME280;42542;48.360;10.958;2024-02-21T01:19:48;97066.50;;;4.64;92.92
56668;BME280;42542;48.360;10.958;2024-02-21T01:22:50;97057.59;;;4.65;92.46
56668;BME280;42542;48.360;10.958;2024-02-21T01:25:53;97067.25;;;4.66;92.94
56668;BME280;42542;48.360;10.958;2024-02-21T01:28:56;97059.31;;;4.66;92.77
56668;BME280;42542;48.360;10.958;2024-02-21T01:31:58;97056.44;;;4.69;93.65
56668;BME280;42542;48.360;10.958;2024-02-21T01:35:00;97048.47;;;4.69;93.02
56668;BME280;42542;48.360;10.958;2024-02-21T01:38:02;97037.78;;;4.70;93.26
56668;BME280;42542;48.360;10.958;2024-02-21T01:41:04;97039.50;;;4.71;93.34
56668;BME280;42542;48.360;10.958;2024-02-21T01:44:06;97034.09;;;4.73;93.32
56668;BME280;42542;48.360;10.958;2024-02-21T01:47:08;97020.84;;;4.73;93.84
56668;BME280;42542;48.360;10.958;2024-02-21T01:50:11;97020.84;;;4.73;93.86
56668;BME280;42542;48.360;10.958;2024-02-21T01:53:23;97008.13;;;4.65;93.91
56668;BME280;42542;48.360;10.958;2024-02-21T01:56:27;97018.31;;;4.71;93.69
56668;BME280;42542;48.360;10.958;2024-02-21T01:59:29;97013.97;;;4.70;94.23
56668;BME280;42542;48.360;10.958;2024-02-21T02:02:31;97012.16;;;4.71;94.30
56668;BME280;42542;48.360;10.958;2024-02-21T02:05:33;97011.31;;;4.70;94.21
56668;BME280;42542;48.360;10.958;2024-02-21T02:08:37;97013.97;;;4.70;94.82
56668;BME280;42542;48.360;10.958;2024-02-21T02:11:39;97001.66;;;4.69;94.87
56668;BME280;42542;48.360;10.958;2024-02-21T02:14:40;96996.50;;;4.68;94.38
56668;BME280;42542;48.360;10.958;2024-02-21T02:17:42;96994.81;;;4.67;94.72
56668;BME280;42542;48.360;10.958;2024-02-21T02:20:46;96994.91;;;4.65;94.67
56668;BME280;42542;48.360;10.958;2024-02-21T02:23:48;96987.16;;;4.62;94.17
56668;BME280;42542;48.360;10.958;2024-02-21T02:26:51;96986.44;;;4.60;94.59
56668;BME280;42542;48.360;10.958;2024-02-21T02:29:53;96983.16;;;4.57;94.39
56668;BME280;42542;48.360;10.958;2024-02-21T02:32:56;96980.72;;;4.54;94.68
56668;BME280;42542;48.360;10.958;2024-02-21T02:35:57;96972.03;;;4.52;94.50
56668;BME280;42542;48.360;10.958;2024-02-21T02:39:00;96968.84;;;4.47;94.68
56668;BME280;42542;48.360;10.958;2024-02-21T02:42:02;96969.81;;;4.46;95.13
56668;BME280;42542;48.360;10.958;2024-02-21T02:45:04;96965.56;;;4.43;95.14
56668;BME280;42542;48.360;10.958;2024-02-21T02:48:06;96965.06;;;4.38;95.56
56668;BME280;42542;48.360;10.958;2024-02-21T02:51:09;96959.00;;;4.36;95.20
56668;BME280;42542;48.360;10.958;2024-02-21T02:54:11;96960.06;;;4.33;95.47
56668;BME280;42542;48.360;10.958;2024-02-21T02:57:14;96957.53;;;4.32;96.02
56668;BME280;42542;48.360;10.958;2024-02-21T03:00:15;96946.19;;;4.30;96.16
56668;BME280;42542;48.360;10.958;2024-02-21T03:03:17;96942.72;;;4.29;95.76
56668;BME280;42542;48.360;10.958;2024-02-21T03:06:19;96945.34;;;4.29;95.84
56668;BME280;42542;48.360;10.958;2024-02-21T03:09:21;96938.47;;;4.27;95.72
56668;BME280;42542;48.360;10.958;2024-02-21T03:12:23;96939.53;;;4.24;96.16
56668;BME280;42542;48.360;10.958;2024-02-21T03:15:29;96943.03;;;4.25;96.09
56668;BME280;42542;48.360;10.958;2024-02-21T03:18:30;96942.28;;;4.23;95.47
56668;BME280;42542;48.360;10.958;2024-02-21T03:21:33;96949.03;;;4.27;95.89
56668;BME280;42542;48.360;10.958;2024-02-21T03:24:35;96944.59;;;4.27;95.76
56668;BME280;42542;48.360;10.958;2024-02-21T03:27:37;96943.75;;;4.27;95.70
56668;BME280;42542;48.360;10.958;2024-02-21T03:30:39;96945.25;;;4.31;95.98
56668;BME280;42542;48.360;10.958;2024-02-21T03:33:42;96940.81;;;4.31;96.83
56668;BME280;42542;48.360;10.958;2024-02-21T03:36:44;96944.19;;;4.33;96.11
56668;BME280;42542;48.360;10.958;2024-02-21T03:39:46;96934.44;;;4.34;96.29
56668;BME280;42542;48.360;10.958;2024-02-21T03:42:49;96938.88;;;4.33;96.26
56668;BME280;42542;48.360;10.958;2024-02-21T03:45:51;96936.97;;;4.36;96.60
56668;BME280;42542;48.360;10.958;2024-02-21T03:48:52;96934.34;;;4.36;96.31
56668;BME280;42542;48.360;10.958;2024-02-21T03:51:54;96930.75;;;4.37;96.43
56668;BME280;42542;48.360;10.958;2024-02-21T03:54:56;96940.28;;;4.39;96.53
56668;BME280;42542;48.360;10.958;2024-02-21T03:57:58;96935.00;;;4.39;96.25
56668;BME280;42542;48.360;10.958;2024-02-21T04:01:00;96934.84;;;4.41;96.21
56668;BME280;42542;48.360;10.958;2024-02-21T04:04:05;96932.09;;;4.42;96.41
56668;BME280;42542;48.360;10.958;2024-02-21T04:07:08;96925.13;;;4.41;96.11
56668;BME280;42542;48.360;10.958;2024-02-21T04:10:10;96925.88;;;4.43;96.26
56668;BME280;42542;48.360;10.958;2024-02-21T04:13:12;96918.69;;;4.45;96.06
56668;BME280;42542;48.360;10.958;2024-02-21T04:16:14;96913.47;;;4.44;96.41
56668;BME280;42542;48.360;10.958;2024-02-21T04:19:17;96923.03;;;4.46;96.27
56668;BME280;42542;48.360;10.958;2024-02-21T04:22:19;96918.53;;;4.47;96.18
56668;BME280;42542;48.360;10.958;2024-02-21T04:25:21;96905.44;;;4.45;95.86
56668;BME280;42542;48.360;10.958;2024-02-21T04:28:22;96901.00;;;4.46;96.03
56668;BME280;42542;48.360;10.958;2024-02-21T04:31:24;96887.84;;;4.44;96.26
56668;BME280;42542;48.360;10.958;2024-02-21T04:34:27;96879.16;;;4.42;95.94
56668;BME280;42542;48.360;10.958;2024-02-21T04:37:29;96881.91;;;4.41;96.04
56668;BME280;42542;48.360;10.958;2024-02-21T04:40:30;96892.50;;;4.41;95.72
56668;BME280;42542;48.360;10.958;2024-02-21T04:43:33;96889.16;;;4.39;96.04
56668;BME280;42542;48.360;10.958;2024-02-21T04:46:35;96872.72;;;4.33;95.92
56668;BME280;42542;48.360;10.958;2024-02-21T04:49:38;96864.16;;;4.30;96.14
56668;BME280;42542;48.360;10.958;2024-02-21T04:52:40;96862.47;;;4.29;96.24
56668;BME280;42542;48.360;10.958;2024-02-21T04:55:41;96853.06;;;4.25;95.90
56668;BME280;42542;48.360;10.958;2024-02-21T04:58:43;96845.34;;;4.22;96.24
56668;BME280;42542;48.360;10.958;2024-02-21T05:01:45;96840.13;;;4.20;96.15
56668;BME280;42542;48.360;10.958;2024-02-21T05:04:47;96837.72;;;4.17;96.38
56668;BME280;42542;48.360;10.958;2024-02-21T05:07:48;96828.19;;;4.15;96.50
56668;BME280;42542;48.360;10.958;2024-02-21T05:10:51;96821.53;;;4.09;96.36
56668;BME280;42542;48.360;10.958;2024-02-21T05:13:52;96822.50;;;4.08;96.33
56668;BME280;42542;48.360;10.958;2024-02-21T05:16:55;96819.09;;;4.06;96.79
56668;BME280;42542;48.360;10.958;2024-02-21T05:19:57;96823.63;;;4.04;96.58
56668;BME280;42542;48.360;10.958;2024-02-21T05:23:00;96809.91;;;3.99;96.69
56668;BME280;42542;48.360;10.958;2024-02-21T05:26:02;96804.00;;;3.96;96.63
56668;BME280;42542;48.360;10.958;2024-02-21T05:29:05;96807.25;;;3.99;96.89
56668;BME280;42542;48.360;10.958;2024-02-21T05:32:07;96796.91;;;3.96;96.79
56668;BME280;42542;48.360;10.958;2024-02-21T05:35:09;96796.91;;;3.96;96.34
56668;BME280;42542;48.360;10.958;2024-02-21T05:38:11;96791.63;;;3.96;96.45
56668;BME280;42542;48.360;10.958;2024-02-21T05:41:13;96799.56;;;3.96;96.92
56668;BME280;42542;48.360;10.958;2024-02-21T05:44:15;96789.91;;;3.95;96.80
56668;BME280;42542;48.360;10.958;2024-02-21T05:47:17;96789.91;;;3.95;96.29
56668;BME280;42542;48.360;10.958;2024-02-21T05:50:22;96776.69;;;3.95;96.39
56668;BME280;42542;48.360;10.958;2024-02-21T05:53:25;96779.22;;;3.97;96.29
56668;BME280;42542;48.360;10.958;2024-02-21T05:56:27;96773.81;;;3.98;96.33
56668;BME280;42542;48.360;10.958;2024-02-21T05:59:30;96770.22;;;3.99;95.91
56668;BME280;42542;48.360;10.958;2024-02-21T06:02:32;96775.41;;;4.01;96.39
56668;BME280;42542;48.360;10.958;2024-02-21T06:05:37;96770.97;;;4.01;96.82
56668;BME280;42542;48.360;10.958;2024-02-21T06:08:42;96767.47;;;4.01;96.90
56668;BME280;42542;48.360;10.958;2024-02-21T06:11:44;96757.94;;;3.98;96.61
56668;BME280;42542;48.360;10.958;2024-02-21T06:14:48;96764.09;;;3.99;97.11
56668;BME280;42542;48.360;10.958;2024-02-21T06:17:50;96775.63;;;3.98;96.96
56668;BME280;42542;48.360;10.958;2024-02-21T06:20:52;96763.13;;;4.00;97.41
56668;BME280;42542;48.360;10.958;2024-02-21T06:23:54;96768.31;;;4.01;97.12
56668;BME280;42542;48.360;10.958;2024-02-21T06:26:56;96770.97;;;4.01;97.15
56668;BME280;42542;48.360;10.958;2024-02-21T06:29:57;96764.72;;;4.02;97.41
56668;BME280;42542;48.360;10.958;2024-02-21T06:32:59;96767.13;;;4.05;97.46
56668;BME280;42542;48.360;10.958;2024-02-21T06:36:02;96759.84;;;4.09;97.61
56668;BME280;42542;48.360;10.958;2024-02-21T06:39:04;96761.53;;;4.10;96.95
56668;BME280;42542;48.360;10.958;2024-02-21T06:42:09;96762.25;;;4.12;97.15
56668;BME280;42542;48.360;10.958;2024-02-21T06:45:11;96771.78;;;4.14;96.41
56668;BME280;42542;48.360;10.958;2024-02-21T06:48:13;96770.84;;;4.15;96.44
56668;BME280;42542;48.360;10.958;2024-02-21T06:51:15;96764.47;;;4.18;96.31
56668;BME280;42542;48.360;10.958;2024-02-21T06:54:18;96767.84;;;4.20;95.94
56668;BME280;42542;48.360;10.958;2024-02-21T06:57:20;96765.00;;;4.23;96.54
56668;BME280;42542;48.360;10.958;2024-02-21T07:00:22;96772.00;;;4.24;96.26
56668;BME280;42542;48.360;10.958;2024-02-21T07:03:26;96776.09;;;4.28;95.94
56668;BME280;42542;48.360;10.958;2024-02-21T07:06:29;96765.41;;;4.29;96.29
56668;BME280;42542;48.360;10.958;2024-02-21T07:09:35;96766.16;;;4.31;95.96
56668;BME280;42542;48.360;10.958;2024-02-21T07:12:37;96773.00;;;4.34;95.92
56668;BME280;42542;48.360;10.958;2024-02-21T07:15:43;96752.69;;;4.35;95.35
56668;BME280;42542;48.360;10.958;2024-02-21T07:18:46;96754.88;;;4.41;95.34
56668;BME280;42542;48.360;10.958;2024-02-21T07:21:47;96744.94;;;4.44;94.65
56668;BME280;42542;48.360;10.958;2024-02-21T07:24:50;96747.97;;;4.51;94.30
56668;BME280;42542;48.360;10.958;2024-02-21T07:27:52;96736.19;;;4.55;93.93
56668;BME280;42542;48.360;10.958;2024-02-21T07:30:54;96739.97;;;4.63;93.94
56668;BME280;42542;48.360;10.958;2024-02-21T07:33:56;96737.81;;;4.68;92.73
56668;BME280;42542;48.360;10.958;2024-02-21T07:36:58;96737.38;;;4.75;93.00
56668;BME280;42542;48.360;10.958;2024-02-21T07:39:59;96723.44;;;4.84;92.93
56668;BME280;42542;48.360;10.958;2024-02-21T07:43:01;96721.41;;;4.87;91.73
56668;BME280;42542;48.360;10.958;2024-02-21T07:46:03;96714.81;;;4.93;92.37
56668;BME280;42542;48.360;10.958;2024-02-21T07:49:08;96718.09;;;4.96;91.73
56668;BME280;42542;48.360;10.958;2024-02-21T07:52:10;96717.84;;;4.99;91.22
56668;BME280;42542;48.360;10.958;2024-02-21T07:55:12;96718.78;;;4.98;89.62
56668;BME280;42542;48.360;10.958;2024-02-21T07:58:14;96729.06;;;5.03;89.62
56668;BME280;42542;48.360;10.958;2024-02-21T08:01:19;96720.16;;;5.04;89.23
56668;BME280;42542;48.360;10.958;2024-02-21T08:04:25;96717.63;;;5.02;88.60
56668;BME280;42542;48.360;10.958;2024-02-21T08:07:27;96711.84;;;5.08;89.37
56668;BME280;42542;48.360;10.958;2024-02-21T08:10:31;96709.22;;;5.08;89.01
56668;BME280;42542;48.360;10.958;2024-02-21T08:13:33;96713.94;;;5.16;88.94
56668;BME280;42542;48.360;10.958;2024-02-21T08:16:36;96714.66;;;5.18;88.77
56668;BME280;42542;48.360;10.958;2024-02-21T08:19:38;96710.91;;;5.21;88.20
56668;BME280;42542;48.360;10.958;2024-02-21T08:22:40;96708.03;;;5.24;87.49
56668;BME280;42542;48.360;10.958;2024-02-21T08:25:42;96705.03;;;5.28;87.68
56668;BME280;42542;48.360;10.958;2024-02-21T08:28:43;96700.34;;;5.32;87.93
56668;BME280;42542;48.360;10.958;2024-02-21T08:31:45;96698.28;;;5.35;87.34
56668;BME280;42542;48.360;10.958;2024-02-21T08:34:48;96687.56;;;5.37;87.67
56668;BME280;42542;48.360;10.958;2024-02-21T08:37:50;96687.22;;;5.41;87.03
56668;BME280;42542;48.360;10.958;2024-02-21T08:40:52;96697.59;;;5.44;87.37
56668;BME280;42542;48.360;10.958;2024-02-21T08:43:54;96698.19;;;5.48;86.07
56668;BME280;42542;48.360;10.958;2024-02-21T08:46:57;96696.16;;;5.52;85.74
56668;BME280;42542;48.360;10.958;2024-02-21T08:49:59;96703.63;;;5.58;85.23
56668;BME280;42542;48.360;10.958;2024-02-21T08:53:12;96690.00;;;5.62;85.41
56668;BME280;42542;48.360;10.958;2024-02-21T08:56:16;96688.53;;;5.69;84.92
56668;BME280;42542;48.360;10.958;2024-02-21T08:59:19;96681.09;;;5.74;84.01
56668;BME280;42542;48.360;10.958;2024-02-21T09:02:20;96682.28;;;5.81;83.66
56668;BME280;42542;48.360;10.958;2024-02-21T09:05:23;96680.97;;;5.87;83.63
56668;BME280;42542;48.360;10.958;2024-02-21T09:08:26;96687.50;;;5.94;83.58
56668;BME280;42542;48.360;10.958;2024-02-21T09:11:29;96687.84;;;6.01;82.92
56668;BME280;42542;48.360;10.958;2024-02-21T09:14:31;96684.69;;;6.07;83.41
56668;BME280;42542;48.360;10.958;2024-02-21T09:17:34;96671.94;;;6.12;82.66
56668;BME280;42542;48.360;10.958;2024-02-21T09:20:36;96672.28;;;6.18;81.94
56668;BME280;42542;48.360;10.958;2024-02-21T09:23:38;96669.97;;;6.25;82.12
56668;BME280;42542;48.360;10.958;2024-02-21T09:26:39;96662.34;;;6.32;81.55
56668;BME280;42542;48.360;10.958;2024-02-21T09:29:41;96657.63;;;6.35;80.76
56668;BME280;42542;48.360;10.958;2024-02-21T09:32:43;96652.53;;;6.43;80.80
56668;BME280;42542;48.360;10.958;2024-02-21T09:35:45;96647.53;;;6.50;81.53
56668;BME280;42542;48.360;10.958;2024-02-21T09:38:47;96642.31;;;6.59;82.17
56668;BME280;42542;48.360;10.958;2024-02-21T09:41:59;96630.78;;;6.70;82.79
56668;BME280;42542;48.360;10.958;2024-02-21T09:45:10;96632.69;;;6.79;81.90
56668;BME280;42542;48.360;10.958;2024-02-21T09:51:36;96639.13;;;6.97;81.60
56668;BME280;42542;48.360;10.958;2024-02-21T09:54:40;96634.00;;;7.05;81.09
56668;BME280;42542;48.360;10.958;2024-02-21T09:57:46;96635.19;;;7.13;80.46
56668;BME280;42542;48.360;10.958;2024-02-21T10:00:49;96632.97;;;7.18;79.31
56668;BME280;42542;48.360;10.958;2024-02-21T10:03:51;96627.84;;;7.26;79.66
56668;BME280;42542;48.360;10.958;2024-02-21T10:06:56;96624.50;;;7.33;80.05
56668;BME280;42542;48.360;10.958;2024-02-21T10:10:04;96611.41;;;7.41;80.21
56668;BME280;42542;48.360;10.958;2024-02-21T10:13:06;96604.56;;;7.49;79.04
56668;BME280;42542;48.360;10.958;2024-02-21T10:16:09;96600.13;;;7.59;77.67
56668;BME280;42542;48.360;10.958;2024-02-21T10:19:18;96610.09;;;7.66;76.80
56668;BME280;42542;48.360;10.958;2024-02-21T10:22:21;96599.63;;;7.74;75.56
56668;BME280;42542;48.360;10.958;2024-02-21T10:25:23;96583.94;;;7.81;76.46
56668;BME280;42542;48.360;10.958;2024-02-21T10:28:25;96590.16;;;7.91;75.65
56668;BME280;42542;48.360;10.958;2024-02-21T10:31:28;96589.31;;;8.00;75.75
56668;BME280;42542;48.360;10.958;2024-02-21T10:34:30;96571.81;;;8.07;75.48
56668;BME280;42542;48.360;10.958;2024-02-21T10:37:33;96568.31;;;8.16;74.28
56668;BME280;42542;48.360;10.958;2024-02-21T10:40:34;96567.81;;;8.32;76.43
56668;BME280;42542;48.360;10.958;2024-02-21T10:43:40;96567.81;;;8.42;74.06
56668;BME280;42542;48.360;10.958;2024-02-21T10:46:43;96560.13;;;8.48;73.09
56668;BME280;42542;48.360;10.958;2024-02-21T10:49:46;96553.78;;;8.59;71.80
56668;BME280;42542;48.360;10.958;2024-02-21T10:52:57;96549.84;;;8.73;72.35
56668;BME280;42542;48.360;10.958;2024-02-21T10:59:16;96515.00;;;8.93;72.86
56668;BME280;42542;48.360;10.958;2024-02-21T11:02:19;96527.06;;;9.07;69.93
56668;BME280;42542;48.360;10.958;2024-02-21T11:05:22;96514.81;;;9.14;69.45
56668;BME280;42542;48.360;10.958;2024-02-21T11:08:24;96507.75;;;9.23;68.83
56668;BME280;42542;48.360;10.958;2024-02-21T11:11:40;96502.25;;;9.34;69.44
56668;BME280;42542;48.360;10.958;2024-02-21T11:14:43;96499.53;;;9.44;67.71
56668;BME280;42542;48.360;10.958;2024-02-21T11:17:53;96492.44;;;9.52;66.76
56668;BME280;42542;48.360;10.958;2024-02-21T11:21:03;96496.91;;;9.61;64.58
56668;BME280;42542;48.360;10.958;2024-02-21T11:24:07;96487.31;;;9.68;64.71
56668;BME280;42542;48.360;10.958;2024-02-21T11:27:14;96488.53;;;9.74;62.92
56668;BME280;42542;48.360;10.958;2024-02-21T11:30:16;96490.31;;;9.83;64.96
56668;BME280;42542;48.360;10.958;2024-02-21T11:33:19;96471.16;;;9.88;62.93
56668;BME280;42542;48.360;10.958;2024-02-21T11:36:27;96463.53;;;9.93;61.65
56668;BME280;42542;48.360;10.958;2024-02-21T11:39:29;96459.41;;;9.98;63.01
56668;BME280;42542;48.360;10.958;2024-02-21T11:42:32;96457.81;;;10.05;63.01
56668;BME280;42542;48.360;10.958;2024-02-21T11:45:34;96453.00;;;10.09;61.94
56668;BME280;42542;48.360;10.958;2024-02-21T11:48:36;96435.84;;;10.11;58.49
56668;BME280;42542;48.360;10.958;2024-02-21T11:51:38;96441.72;;;10.15;56.87
56668;BME280;42542;48.360;10.958;2024-02-21T11:54:40;96426.25;;;10.18;58.18
56668;BME280;42542;48.360;10.958;2024-02-21T11:57:42;96426.59;;;10.24;59.13
56668;BME280;42542;48.360;10.958;2024-02-21T12:00:46;96410.13;;;10.28;58.28
56668;BME280;42542;48.360;10.958;2024-02-21T12:03:48;96405.44;;;10.30;58.37
56668;BME280;42542;48.360;10.958;2024-02-21T12:06:52;96392.78;;;10.32;54.34
56668;BME280;42542;48.360;10.958;2024-02-21T12:09:54;96388.97;;;10.35;53.80
56668;BME280;42542;48.360;10.958;2024-02-21T12:13:06;96381.31;;;10.40;54.29
56668;BME280;42542;48.360;10.958;2024-02-21T12:16:10;96382.84;;;10.42;54.32
56668;BME280;42542;48.360;10.958;2024-02-21T12:19:12;96372.84;;;10.44;52.12
56668;BME280;42542;48.360;10.958;2024-02-21T12:22:25;96371.53;;;10.48;51.12
56668;BME280;42542;48.360;10.958;2024-02-21T12:25:28;96359.34;;;10.54;52.17
56668;BME280;42542;48.360;10.958;2024-02-21T12:28:30;96357.41;;;10.64;54.48
56668;BME280;42542;48.360;10.958;2024-02-21T12:31:32;96350.75;;;10.68;51.65
56668;BME280;42542;48.360;10.958;2024-02-21T12:34:33;96342.56;;;10.70;51.59
56668;BME280;42542;48.360;10.958;2024-02-21T12:37:53;96325.00;;;10.67;52.27
56668;BME280;42542;48.360;10.958;2024-02-21T12:40:56;96339.78;;;10.79;53.06
56668;BME280;42542;48.360;10.958;2024-02-21T12:44:02;96330.44;;;10.83;51.63
56668;BME280;42542;48.360;10.958;2024-02-21T12:47:06;96322.59;;;10.90;52.56
56668;BME280;42542;48.360;10.958;2024-02-21T12:50:09;96325.47;;;10.96;51.97
56668;BME280;42542;48.360;10.958;2024-02-21T12:53:11;96310.78;;;11.01;51.52
56668;BME280;42542;48.360;10.958;2024-02-21T12:56:26;96311.13;;;11.06;51.53
56668;BME280;42542;48.360;10.958;2024-02-21T12:59:32;96302.13;;;11.07;50.01
56668;BME280;42542;48.360;10.958;2024-02-21T13:02:35;96290.25;;;11.09;50.30
56668;BME280;42542;48.360;10.958;2024-02-21T13:05:36;96287.75;;;11.16;50.43
56668;BME280;42542;48.360;10.958;2024-02-21T13:08:39;96282.06;;;11.19;50.60
56668;BME280;42542;48.360;10.958;2024-02-21T13:11:42;96274.22;;;11.25;51.71
56668;BME280;42542;48.360;10.958;2024-02-21T13:14:47;96267.56;;;11.29;49.20
56668;BME280;42542;48.360;10.958;2024-02-21T13:17:49;96257.69;;;11.30;50.43
56668;BME280;42542;48.360;10.958;2024-02-21T13:20:51;96257.50;;;11.40;48.90
56668;BME280;42542;48.360;10.958;2024-02-21T13:23:54;96251.00;;;11.42;48.59
56668;BME280;42542;48.360;10.958;2024-02-21T13:26:57;96239.13;;;11.45;48.65
56668;BME280;42542;48.360;10.958;2024-02-21T13:30:00;96231.28;;;11.51;49.35
56668;BME280;42542;48.360;10.958;2024-02-21T13:33:06;96230.59;;;11.57;48.36
56668;BME280;42542;48.360;10.958;2024-02-21T13:36:09;96222.06;;;11.62;47.28
56668;BME280;42542;48.360;10.958;2024-02-21T13:39:11;96210.34;;;11.63;44.60
56668;BME280;42542;48.360;10.958;2024-02-21T13:42:16;96212.69;;;11.66;44.63
56668;BME280;42542;48.360;10.958;2024-02-21T13:45:19;96199.47;;;11.64;45.07
56668;BME280;42542;48.360;10.958;2024-02-21T13:48:21;96200.97;;;11.75;45.18
56668;BME280;42542;48.360;10.958;2024-02-21T13:51:23;96190.94;;;11.77;43.73
56668;BME280;42542;48.360;10.958;2024-02-21T13:54:24;96184.25;;;11.81;44.86
56668;BME280;42542;48.360;10.958;2024-02-21T13:57:27;96179.72;;;11.82;42.84
56668;BME280;42542;48.360;10.958;2024-02-21T14:00:29;96178.72;;;11.83;43.12
56668;BME280;42542;48.360;10.958;2024-02-21T14:03:31;96169.66;;;11.84;43.16
56668;BME280;42542;48.360;10.958;2024-02-21T14:06:34;96165.31;;;11.83;42.52
56668;BME280;42542;48.360;10.958;2024-02-21T14:09:37;96165.00;;;11.86;43.44
56668;BME280;42542;48.360;10.958;2024-02-21T14:12:39;96155.78;;;11.88;41.68
56668;BME280;42542;48.360;10.958;2024-02-21T14:15:44;96146.06;;;11.87;41.57
56668;BME280;42542;48.360;10.958;2024-02-21T14:18:48;96146.06;;;11.87;41.64
56668;BME280;42542;48.360;10.958;2024-02-21T14:21:50;96148.75;;;11.87;42.12
56668;BME280;42542;48.360;10.958;2024-02-21T14:24:52;96151.22;;;11.89;42.92
56668;BME280;42542;48.360;10.958;2024-02-21T14:27:54;96149.09;;;11.84;41.76
56668;BME280;42542;48.360;10.958;2024-02-21T14:30:56;96140.88;;;11.86;42.09
56668;BME280;42542;48.360;10.958;2024-02-21T14:33:59;96132.84;;;11.86;42.04
56668;BME280;42542;48.360;10.958;2024-02-21T14:37:02;96132.16;;;11.84;41.47
56668;BME280;42542;48.360;10.958;2024-02-21T14:40:05;96126.66;;;11.85;41.84
56668;BME280;42542;48.360;10.958;2024-02-21T14:43:08;96129.34;;;11.85;42.26
56668;BME280;42542;48.360;10.958;2024-02-21T14:46:11;96125.97;;;11.83;42.36
56668;BME280;42542;48.360;10.958;2024-02-21T14:49:13;96126.97;;;11.82;42.16
56668;BME280;42542;48.360;10.958;2024-02-21T14:52:19;96128.00;;;11.81;41.23
56668;BME280;42542;48.360;10.958;2024-02-21T14:55:23;96129.34;;;11.77;41.41
56668;BME280;42542;48.360;10.958;2024-02-21T14:58:25;96125.00;;;11.76;41.77
56668;BME280;42542;48.360;10.958;2024-02-21T15:01:27;96123.66;;;11.72;41.82
56668;BME280;42542;48.360;10.958;2024-02-21T15:04:30;96111.44;;;11.69;42.44
56668;BME280;42542;48.360;10.958;2024-02-21T15:07:33;96099.72;;;11.62;42.59
56668;BME280;42542;48.360;10.958;2024-02-21T15:10:35;96105.94;;;11.63;42.72
56668;BME280;42542;48.360;10.958;2024-02-21T15:13:37;96102.56;;;11.61;43.06
56668;BME280;42542;48.360;10.958;2024-02-21T15:16:39;96100.59;;;11.55;42.54
56668;BME280;42542;48.360;10.958;2024-02-21T15:19:41;96101.41;;;11.55;42.91
56668;BME280;42542;48.360;10.958;2024-02-21T15:22:46;96101.59;;;11.54;43.73
56668;BME280;42542;48.360;10.958;2024-02-21T15:25:48;96098.25;;;11.52;44.64
56668;BME280;42542;48.360;10.958;2024-02-21T15:28:50;96087.41;;;11.45;44.58
56668;BME280;42542;48.360;10.958;2024-02-21T15:31:52;96089.06;;;11.46;44.67
56668;BME280;42542;48.360;10.958;2024-02-21T15:34:54;96088.22;;;11.46;45.15
56668;BME280;42542;48.360;10.958;2024-02-21T15:37:57;96072.50;;;11.43;46.43
56668;BME280;42542;48.360;10.958;2024-02-21T15:40:59;96066.00;;;11.37;46.81
56668;BME280;42542;48.360;10.958;2024-02-21T15:44:01;96070.69;;;11.35;47.47
56668;BME280;42542;48.360;10.958;2024-02-21T15:47:04;96068.34;;;11.32;48.25
56668;BME280;42542;48.360;10.958;2024-02-21T15:50:07;96058.31;;;11.26;46.74
56668;BME280;42542;48.360;10.958;2024-02-21T15:53:12;96065.88;;;11.22;47.23
56668;BME280;42542;48.360;10.958;2024-02-21T15:56:13;96056.31;;;11.20;48.52
56668;BME280;42542;48.360;10.958;2024-02-21T15:59:16;96054.34;;;11.14;49.54
56668;BME280;42542;48.360;10.958;2024-02-21T16:02:18;96049.66;;;11.08;48.67
56668;BME280;42542;48.360;10.958;2024-02-21T16:05:20;96051.81;;;11.04;48.61
56668;BME280;42542;48.360;10.958;2024-02-21T16:08:22;96054.34;;;10.98;49.31
56668;BME280;42542;48.360;10.958;2024-02-21T16:11:25;96051.34;;;10.92;49.21